Time;durP1;ratioP1;P1;durP2;ratioP2;P2;SDS_P1;SDS_P2;PMS_P1;PMS_P2;Temp;Humidity;BMP_temperature;BMP_pressure;BME280_temperature;BME280_humidity;BME280_pressure;Samples;Min_cycle;Max_cycle;Signal;HPM_P1;HPM_P2
2021/04/09 00:00:34;;;;;;;1.02;0.60;;;;;;;17.63;52.63;101579.88;6267624;23;20016;-80
2021/04/09 00:03:03;;;;;;;2.28;0.70;;;;;;;17.63;52.71;101584.22;6275598;22;20010;-80
2021/04/09 00:05:34;;;;;;;1.85;0.80;;;;;;;17.63;52.46;101584.22;6352488;22;20359;-79
2021/04/09 00:08:29;;;;;;;0.90;0.60;;;;;;;17.62;52.64;101583.34;6332301;22;20010;-78
2021/04/09 00:10:58;;;;;;;1.42;0.70;;;;;;;17.63;52.35;101582.47;6331304;22;20003;-78
2021/04/09 00:13:27;;;;;;;1.27;0.70;;;;;;;17.63;52.45;101585.06;6360186;22;19990;-79
2021/04/09 00:16:00;;;;;;;1.67;0.88;;;;;;;17.63;52.43;101579.00;6359578;22;19987;-79
2021/04/09 00:18:28;;;;;;;1.13;0.60;;;;;;;17.63;52.59;101576.41;6363376;22;20022;-79
2021/04/09 00:20:57;;;;;;;0.90;0.65;;;;;;;17.61;52.47;101565.97;6391697;22;19990;-79
2021/04/09 00:23:44;;;;;;;3.03;0.60;;;;;;;17.61;52.46;101572.94;6379566;22;20014;-79
2021/04/09 00:26:14;;;;;;;1.33;0.63;;;;;;;17.62;52.52;101577.28;6269798;23;20023;-78
2021/04/09 00:28:40;;;;;;;1.52;0.65;;;;;;;17.63;52.51;101555.59;6221690;23;20004;-79
2021/04/09 00:31:08;;;;;;;1.67;0.75;;;;;;;17.62;52.07;101559.06;6213443;23;20039;-79
2021/04/09 00:33:33;;;;;;;1.58;0.70;;;;;;;17.61;52.38;101559.91;6188194;23;20004;-79
2021/04/09 00:36:03;;;;;;;1.35;0.60;;;;;;;17.61;52.54;101560.78;6216501;23;19993;-79
2021/04/09 00:38:36;;;;;;;1.23;0.60;;;;;;;17.61;52.29;101559.91;6237510;23;20095;-78
2021/04/09 00:41:14;;;;;;;0.82;0.60;;;;;;;17.62;52.45;101556.47;6230970;23;20004;-79
2021/04/09 00:43:47;;;;;;;1.23;0.60;;;;;;;17.60;52.16;101553.84;6216559;23;19997;-81
2021/04/09 00:46:17;;;;;;;;;;;;;;;17.62;52.22;101566.88;6260878;22;20023;-79
2021/04/09 00:48:50;;;;;;;1.17;0.70;;;;;;;17.61;52.13;101558.19;6345265;22;19936;-78
2021/04/09 00:51:24;;;;;;;0.90;0.65;;;;;;;17.59;52.31;101554.69;6394494;22;20022;-79
2021/04/09 00:53:51;;;;;;;1.10;0.70;;;;;;;17.59;52.32;101553.84;6371705;22;19979;-78
2021/04/09 00:56:56;;;;;;;1.23;0.70;;;;;;;17.61;52.31;101554.72;6400009;22;19978;-82
2021/04/09 00:59:27;;;;;;;2.10;0.70;;;;;;;17.57;52.32;101537.34;6396763;22;19986;-80
2021/04/09 01:01:54;;;;;;;2.40;1.02;;;;;;;17.60;52.04;101542.59;6398360;22;19998;-78
2021/04/09 01:04:40;;;;;;;0.75;0.63;;;;;;;17.58;52.27;101529.56;6344481;22;20029;-79
2021/04/09 01:07:27;;;;;;;1.00;0.60;;;;;;;17.56;52.33;101530.44;6397158;22;19999;-78
2021/04/09 01:10:05;;;;;;;1.20;0.60;;;;;;;17.58;52.01;101526.94;6368911;22;20031;-81
2021/04/09 01:12:38;;;;;;;0.98;0.57;;;;;;;17.58;52.03;101523.50;6334593;22;20013;-78
2021/04/09 01:15:26;;;;;;;1.20;0.70;;;;;;;17.60;52.32;101529.56;6394217;22;20045;-78
2021/04/09 01:18:19;;;;;;;0.50;0.50;;;;;;;17.60;52.18;101521.75;6385708;22;20018;-79
2021/04/09 01:21:12;;;;;;;2.30;0.80;;;;;;;17.59;52.09;101512.19;6389202;22;20014;-78
2021/04/09 01:23:52;;;;;;;1.00;0.75;;;;;;;17.58;51.96;101511.34;6364404;22;19999;-79
2021/04/09 01:27:07;;;;;;;1.05;0.63;;;;;;;17.57;52.03;101504.41;6396093;22;20002;-78
2021/04/09 01:30:10;;;;;;;0.93;0.70;;;;;;;17.56;52.12;101505.25;6363145;22;20036;-78
2021/04/09 01:35:52;;;;;;;1.55;0.90;;;;;;;17.58;52.29;101500.06;6385677;22;20011;-78
2021/04/09 01:38:30;;;;;;;1.30;0.90;;;;;;;17.54;51.95;101496.59;6347067;22;20015;-79
2021/04/09 01:41:03;;;;;;;1.08;0.70;;;;;;;17.56;52.05;101501.81;6360627;22;20338;-78
2021/04/09 01:43:36;;;;;;;0.93;0.57;;;;;;;17.54;52.09;101500.94;6309514;22;20041;-78
2021/04/09 01:46:05;;;;;;;1.55;0.70;;;;;;;17.57;52.09;101508.72;6360221;22;20452;-78
2021/04/09 01:48:36;;;;;;;1.35;0.85;;;;;;;17.56;52.36;101497.44;6389100;22;20052;-78
2021/04/09 01:51:23;;;;;;;1.48;0.80;;;;;;;17.58;52.01;101495.72;6374847;22;20055;-79
2021/04/09 01:54:04;;;;;;;1.13;0.70;;;;;;;17.55;52.06;101492.25;6384589;22;20010;-78
2021/04/09 01:56:53;;;;;;;1.55;1.00;;;;;;;17.56;52.18;101492.25;6301517;22;20007;-78
2021/04/09 01:59:27;;;;;;;1.25;0.80;;;;;;;17.54;52.07;101483.56;6271978;22;20008;-80
2021/04/09 02:02:02;;;;;;;2.30;0.70;;;;;;;17.57;52.09;101483.59;6324530;22;20006;-78
2021/04/09 02:04:29;;;;;;;1.13;0.80;;;;;;;17.56;52.26;101488.78;6328423;22;20083;-79
2021/04/09 02:07:02;;;;;;;2.45;0.90;;;;;;;17.55;51.83;101476.63;6330980;22;19991;-79
2021/04/09 02:09:43;;;;;;;1.05;0.70;;;;;;;17.52;52.39;101480.09;6333526;22;20086;-78
2021/04/09 02:12:15;;;;;;;1.05;0.70;;;;;;;17.55;51.95;101479.22;6306534;22;19991;-78
2021/04/09 02:14:42;;;;;;;2.00;0.90;;;;;;;17.55;52.13;101471.41;6305895;22;20011;-78
2021/04/09 02:17:09;;;;;;;1.73;0.70;;;;;;;17.51;51.99;101467.97;6279465;22;20011;-78
2021/04/09 02:20:06;;;;;;;1.40;0.77;;;;;;;17.56;51.99;101475.78;6375772;22;20019;-78
2021/04/09 02:22:52;;;;;;;1.08;0.70;;;;;;;17.53;52.00;101462.75;6349657;22;20009;-78
2021/04/09 02:25:22;;;;;;;0.65;0.57;;;;;;;17.54;51.89;101467.09;6392447;22;19999;-79
2021/04/09 02:31:15;;;;;;;0.63;0.60;;;;;;;17.54;51.96;101467.97;6392767;22;20002;-79
2021/04/09 02:36:43;;;;;;;1.17;0.80;;;;;;;17.53;52.04;101452.34;6361808;22;20021;-77
2021/04/09 02:39:19;;;;;;;1.17;0.70;;;;;;;17.53;51.99;101462.75;6334497;22;20010;-78
2021/04/09 02:41:54;;;;;;;1.10;0.80;;;;;;;17.51;52.07;101456.66;6331907;22;20007;-77
2021/04/09 02:44:29;;;;;;;1.17;0.80;;;;;;;17.54;52.05;101457.53;6297499;22;20007;-77
2021/04/09 02:47:05;;;;;;;1.08;0.80;;;;;;;17.52;51.84;101459.28;6361569;22;20019;-77
2021/04/09 02:49:39;;;;;;;1.17;0.60;;;;;;;17.53;51.90;101461.03;6363848;22;20014;-77
2021/04/09 02:52:30;;;;;;;1.67;0.73;;;;;;;17.53;52.06;101457.53;6388491;22;20024;-77
2021/04/09 03:03:21;;;;;;;2.05;0.85;;;;;;;17.51;51.77;101439.34;6337813;22;20018;-77
2021/04/09 03:06:28;;;;;;;1.50;0.70;;;;;;;17.52;51.75;101437.59;6320092;22;20019;-77
2021/04/09 03:09:11;;;;;;;1.58;0.77;;;;;;;17.47;51.85;101435.84;6360207;22;20030;-77
2021/04/09 03:11:39;;;;;;;1.33;0.80;;;;;;;17.51;51.46;101436.75;6330672;22;20036;-77
2021/04/09 03:14:08;;;;;;;2.45;0.90;;;;;;;17.49;52.02;101425.47;6333788;22;20009;-77
2021/04/09 03:16:48;;;;;;;1.20;0.70;;;;;;;17.47;51.74;101422.84;6361535;22;20013;-77
2021/04/09 03:19:15;;;;;;;0.85;0.63;;;;;;;17.47;51.95;101416.78;6389826;22;20053;-77
2021/04/09 03:21:41;;;;;;;1.00;0.80;;;;;;;17.48;51.80;101421.09;6335745;22;20081;-77
2021/04/09 03:24:09;;;;;;;0.90;0.60;;;;;;;17.49;51.75;101417.66;6372000;22;20015;-77
2021/04/09 03:27:00;;;;;;;1.08;0.68;;;;;;;17.48;51.58;101414.19;6266169;22;20423;-77
2021/04/09 03:29:26;;;;;;;1.10;0.80;;;;;;;17.47;51.88;101419.38;6293595;22;20016;-77
2021/04/09 03:31:52;;;;;;;1.55;0.80;;;;;;;17.47;52.04;101408.97;6264862;22;20007;-77
2021/04/09 03:34:25;;;;;;;1.25;0.70;;;;;;;17.46;51.80;101412.44;6272633;22;20446;-77
2021/04/09 03:36:50;;;;;;;2.03;0.90;;;;;;;17.48;51.77;101410.69;6297117;22;19999;-77
2021/04/09 03:39:26;;;;;;;0.82;0.70;;;;;;;17.47;51.92;101404.63;6271045;22;20004;-77
2021/04/09 03:41:53;;;;;;;1.23;0.80;;;;;;;17.47;51.79;101402.03;6267087;22;20034;-77
2021/04/09 03:44:20;;;;;;;1.33;0.80;;;;;;;17.45;51.58;101393.34;6236613;22;20446;-77
2021/04/09 03:46:48;;;;;;;1.25;0.73;;;;;;;17.46;51.76;101400.31;6295227;22;20004;-77
2021/04/09 03:49:15;;;;;;;1.67;0.70;;;;;;;17.46;51.73;101395.13;6291776;22;20007;-77
2021/04/09 03:51:47;;;;;;;0.88;0.73;;;;;;;17.47;51.86;101395.97;6263667;22;20008;-77
2021/04/09 03:54:13;;;;;;;1.30;0.70;;;;;;;17.45;51.81;101390.75;6269863;22;20008;-78
2021/04/09 03:56:45;;;;;;;1.25;0.80;;;;;;;17.44;51.93;101385.53;6290762;22;20122;-77
2021/04/09 03:59:12;;;;;;;1.70;0.88;;;;;;;17.43;51.79;101395.09;6286593;22;20093;-77
2021/04/09 04:01:45;;;;;;;2.03;0.88;;;;;;;17.46;51.91;101397.72;6260463;22;20008;-78
2021/04/09 04:04:11;;;;;;;1.08;0.70;;;;;;;17.45;51.79;101397.72;6291367;22;20007;-77
2021/04/09 04:06:36;;;;;;;1.35;0.63;;;;;;;17.45;51.68;101400.31;6268016;22;20007;-77
2021/04/09 04:09:02;;;;;;;1.42;0.70;;;;;;;17.44;51.91;101395.94;6268558;22;20019;-77
2021/04/09 04:12:06;;;;;;;0.90;0.73;;;;;;;17.45;51.92;101392.50;6246602;22;19999;-77
2021/04/09 04:15:11;;;;;;;1.30;0.80;;;;;;;17.44;51.95;101391.66;6297481;22;20034;-77
2021/04/09 04:17:56;;;;;;;1.05;0.60;;;;;;;17.44;51.63;101389.03;6300076;22;20007;-78
2021/04/09 04:20:29;;;;;;;1.30;0.80;;;;;;;17.42;51.90;101376.88;6302358;22;20089;-78
2021/04/09 04:23:16;;;;;;;1.90;0.90;;;;;;;17.44;51.92;101377.75;6301470;22;19988;-78
2021/04/09 04:25:44;;;;;;;1.65;0.63;;;;;;;17.41;51.85;101373.41;6301438;22;20007;-77
2021/04/09 04:28:11;;;;;;;1.00;0.60;;;;;;;17.42;51.99;101375.16;6303335;22;20012;-77
2021/04/09 04:30:38;;;;;;;0.93;0.60;;;;;;;17.42;51.90;101369.06;6252834;22;20011;-78
2021/04/09 04:33:21;;;;;;;1.20;0.68;;;;;;;17.41;51.68;101368.22;6252420;22;20003;-78
2021/04/09 04:35:54;;;;;;;1.05;0.60;;;;;;;17.40;51.56;101370.84;6284038;22;19991;-79
2021/04/09 04:38:22;;;;;;;1.20;0.68;;;;;;;17.41;51.76;101368.22;6302772;22;20063;-77
2021/04/09 04:40:56;;;;;;;2.70;0.82;;;;;;;17.43;51.99;101368.22;6303364;22;19996;-77
2021/04/09 04:43:27;;;;;;;1.35;0.77;;;;;;;17.42;51.78;101369.97;6254363;22;20033;-78
2021/04/09 04:45:54;;;;;;;1.08;0.60;;;;;;;17.42;51.76;101369.97;6305028;22;20007;-77
2021/04/09 04:48:33;;;;;;;1.35;0.70;;;;;;;17.41;51.70;101367.34;6277644;22;20569;-78
2021/04/09 04:51:17;;;;;;;1.30;0.70;;;;;;;17.42;51.81;101376.88;6278138;22;20007;-78
2021/04/09 04:53:43;;;;;;;1.83;0.70;;;;;;;17.41;51.74;101365.59;6301941;22;20055;-77
2021/04/09 04:56:11;;;;;;;1.30;0.70;;;;;;;17.41;51.72;101365.59;6278848;22;20389;-79
2021/04/09 04:58:44;;;;;;;1.48;0.73;;;;;;;17.40;51.62;101363.03;6278217;22;20038;-77
2021/04/09 05:04:28;;;;;;;1.50;0.60;;;;;;;17.41;51.82;101363.00;6333077;22;20018;-78
2021/04/09 05:06:55;;;;;;;1.15;0.70;;;;;;;17.42;51.66;101363.88;6238976;23;20024;-76
2021/04/09 05:09:26;;;;;;;0.95;0.70;;;;;;;17.39;51.57;101358.69;6212055;23;20012;-79
2021/04/09 05:11:56;;;;;;;1.17;0.70;;;;;;;17.40;51.75;101353.47;6235188;23;20020;-78
2021/04/09 05:14:24;;;;;;;2.67;1.17;;;;;;;17.51;51.55;101360.38;6238017;23;20004;-78
2021/04/09 05:17:05;;;;;;;7.53;2.05;;;;;;;17.58;51.43;101354.34;6211311;23;20023;-79
2021/04/09 05:19:32;;;;;;;4.82;1.70;;;;;;;17.61;51.40;101349.09;6234560;23;20116;-78
2021/04/09 05:21:59;;;;;;;3.05;1.63;;;;;;;17.66;51.21;101350.00;6240732;23;20012;-79
2021/04/09 05:24:48;;;;;;;7.97;2.00;;;;;;;17.69;51.33;101349.97;6217246;22;20015;-81
2021/04/09 05:27:33;;;;;;;5.05;2.25;;;;;;;17.76;51.48;101343.88;6147674;22;20028;-79
2021/04/09 05:30:05;;;;;;;7.60;2.17;;;;;;;17.81;51.60;101352.56;6377333;22;20019;-79
2021/04/09 05:32:32;;;;;;;7.45;2.50;;;;;;;17.82;51.57;101351.72;6193317;22;3766348;-79
2021/04/09 05:34:59;;;;;;;10.00;2.10;;;;;;;17.83;51.43;101349.97;6366812;22;20074;-79
2021/04/09 05:37:26;;;;;;;4.55;1.67;;;;;;;17.85;51.69;101354.28;6356592;22;19999;-78
2021/04/09 05:39:53;;;;;;;6.32;1.83;;;;;;;17.89;51.24;101361.22;6364161;22;20050;-79
2021/04/09 05:42:27;;;;;;;8.90;2.10;;;;;;;17.93;51.33;101353.44;6363080;22;19998;-78
2021/04/09 05:47:19;;;;;;;6.13;1.50;;;;;;;17.99;51.12;101361.22;6352169;22;20038;-78
2021/04/09 05:49:48;;;;;;;4.68;1.40;;;;;;;18.03;50.97;101360.31;6358210;22;20021;-78
2021/04/09 05:52:15;;;;;;;4.30;1.20;;;;;;;18.07;50.99;101359.44;6356445;22;20010;-78
2021/04/09 05:54:44;;;;;;;4.47;1.70;;;;;;;18.13;50.73;101358.56;6337262;22;20019;-78
2021/04/09 05:57:30;;;;;;;4.20;1.20;;;;;;;18.18;50.56;101360.28;6361653;22;20002;-78
2021/04/09 06:00:21;;;;;;;4.35;1.55;;;;;;;18.24;50.42;101362.00;6361146;22;20003;-80
2021/04/09 06:02:54;;;;;;;5.13;1.30;;;;;;;18.25;50.48;101355.94;6356278;22;20326;-79
2021/04/09 06:05:21;;;;;;;4.05;1.80;;;;;;;18.24;50.35;101355.03;6356360;22;20120;-79
2021/04/09 06:07:54;;;;;;;6.50;1.52;;;;;;;18.26;50.41;101355.91;6352572;22;20449;-80
2021/04/09 06:10:25;;;;;;;2.28;1.20;;;;;;;18.30;50.26;101367.19;6354557;22;20033;-81
2021/04/09 06:12:51;;;;;;;4.60;1.40;;;;;;;18.36;50.40;101366.31;6331169;22;20499;-80
2021/04/09 06:15:16;;;;;;;3.33;1.30;;;;;;;18.42;50.03;101351.50;6329566;22;20023;-81
2021/04/09 06:17:43;;;;;;;2.47;1.25;;;;;;;18.69;49.56;101355.69;6352362;22;20093;-83
2021/04/09 06:20:09;;;;;;;4.80;1.50;;;;;;;18.84;48.72;101357.38;6339143;22;20488;-88
2021/04/09 06:22:35;;;;;;;4.90;1.60;;;;;;;18.78;49.08;101346.97;6338424;22;20007;-84
2021/04/09 06:25:04;;;;;;;4.32;1.20;;;;;;;18.79;49.02;101356.56;6346718;22;20051;-84
2021/04/09 06:27:29;;;;;;;2.28;1.23;;;;;;;19.03;48.19;101355.50;6368362;22;20430;-86
2021/04/09 06:29:55;;;;;;;3.22;1.20;;;;;;;19.45;47.32;101352.56;6369207;22;20090;-89
2021/04/09 06:32:20;;;;;;;3.50;1.40;;;;;;;19.88;46.17;101352.16;6371354;22;20421;-83
2021/04/09 06:34:46;;;;;;;2.38;1.27;;;;;;;19.87;46.12;101353.91;6374767;22;20134;-85
2021/04/09 06:37:11;;;;;;;4.25;1.33;;;;;;;19.65;46.95;101347.16;6370929;22;20042;-89
2021/04/09 06:39:37;;;;;;;2.55;1.10;;;;;;;19.78;46.49;101343.56;6371455;22;20017;-88
2021/04/09 06:42:04;;;;;;;6.35;1.20;;;;;;;20.08;45.92;101344.09;6370587;22;20081;-88
2021/04/09 06:44:30;;;;;;;7.07;1.35;;;;;;;19.96;46.18;101339.00;6369477;22;20004;-91
2021/04/09 06:46:56;;;;;;;2.47;1.13;;;;;;;20.02;46.19;101352.00;6369706;22;20002;-87
2021/04/09 06:49:21;;;;;;;4.28;1.10;;;;;;;19.82;46.66;101358.31;6372343;22;20493;-91
2021/04/09 06:51:47;;;;;;;3.22;1.08;;;;;;;19.93;46.39;101356.44;6341884;22;20013;-88
2021/04/09 06:54:15;;;;;;;3.90;1.15;;;;;;;20.05;46.40;101358.03;6372132;22;20405;-86
2021/04/09 06:56:51;;;;;;;2.83;1.20;;;;;;;19.86;46.68;101356.50;6371693;22;20143;-90
2021/04/09 06:59:23;;;;;;;3.33;1.30;;;;;;;19.47;47.53;101359.50;6372414;22;20042;-90
2021/04/09 07:01:51;;;;;;;2.10;1.13;;;;;;;19.27;48.41;101361.41;6372040;22;20002;-88
2021/04/09 07:04:17;;;;;;;2.97;1.15;;;;;;;19.30;48.05;101348.34;6342507;22;20014;-91
2021/04/09 07:06:42;;;;;;;3.92;1.08;;;;;;;19.35;48.01;101356.13;6372200;22;20006;-88
2021/04/09 07:09:08;;;;;;;4.07;1.20;;;;;;;19.69;46.94;101356.69;6347452;22;20022;-88
2021/04/09 07:11:37;;;;;;;1.70;1.00;;;;;;;20.04;46.00;101355.47;6371120;22;20013;-86
2021/04/09 07:14:03;;;;;;;4.55;0.90;;;;;;;20.05;46.06;101358.03;6369439;22;20012;-88
2021/04/09 07:16:28;;;;;;;2.40;0.93;;;;;;;19.91;46.48;101349.50;6371018;22;20026;-89
2021/04/09 07:18:59;;;;;;;2.78;1.10;;;;;;;20.23;45.90;101336.06;6371577;22;20418;-85
2021/04/09 07:21:33;;;;;;;3.13;1.17;;;;;;;20.53;44.63;101334.81;6371209;22;20012;-86
2021/04/09 07:24:14;;;;;;;2.35;1.02;;;;;;;19.85;46.58;101344.34;6370093;22;20445;-89
2021/04/09 07:26:43;;;;;;;2.95;1.10;;;;;;;19.73;46.87;101342.75;6371162;22;20030;-88
2021/04/09 07:29:31;;;;;;;1.90;1.00;;;;;;;19.57;47.53;101354.19;6373355;22;20013;-93
2021/04/09 07:32:17;;;;;;;3.10;1.15;;;;;;;19.50;47.38;101361.22;6372153;22;20063;-89
2021/04/09 07:34:54;;;;;;;2.63;1.10;;;;;;;20.31;45.50;101362.94;6371407;22;20009;-82
2021/04/09 07:37:21;;;;;;;2.17;1.00;;;;;;;20.55;44.73;101363.53;6371175;22;20075;-84
2021/04/09 07:39:53;;;;;;;3.10;0.85;;;;;;;20.79;44.17;101354.50;6374653;22;19998;-89
2021/04/09 07:42:19;;;;;;;2.13;1.05;;;;;;;20.24;45.49;101358.69;6372721;22;20497;-83
2021/04/09 07:44:55;;;;;;;2.15;1.00;;;;;;;19.93;46.31;101371.25;6381272;22;20029;-87
2021/04/09 07:47:25;;;;;;;2.08;0.95;;;;;;;20.29;45.58;101367.34;6393023;22;20010;-82
2021/04/09 07:49:58;;;;;;;1.52;0.88;;;;;;;19.89;46.49;101378.25;6379580;22;20005;-89
2021/04/09 07:52:25;;;;;;;1.45;0.98;;;;;;;19.37;48.03;101365.66;6372659;22;20010;-90
2021/04/09 07:54:51;;;;;;;2.20;0.95;;;;;;;19.18;48.51;101372.78;6371343;22;20011;-82
2021/04/09 07:57:29;;;;;;;2.58;1.13;;;;;;;19.19;48.54;101371.06;6370613;22;20379;-85
2021/04/09 07:59:55;;;;;;;2.00;0.75;;;;;;;19.17;48.36;101371.06;6374327;22;20039;-89
2021/04/09 08:02:38;;;;;;;2.42;1.15;;;;;;;19.19;48.58;101371.06;6370121;22;20002;-85
2021/04/09 08:05:03;;;;;;;2.08;0.85;;;;;;;19.25;48.38;101370.97;6370393;22;20006;-89
2021/04/09 08:07:34;;;;;;;2.58;1.00;;;;;;;19.33;48.33;101377.88;6342931;22;20022;-89
2021/04/09 08:09:59;;;;;;;3.03;0.98;;;;;;;19.50;47.79;101372.50;6372305;22;20005;-88
2021/04/09 08:12:34;;;;;;;2.25;0.90;;;;;;;19.61;47.20;101372.41;6343140;22;20026;-86
2021/04/09 08:15:29;;;;;;;1.63;0.82;;;;;;;19.53;47.50;101372.50;6369716;22;20030;-87
2021/04/09 08:18:06;;;;;;;1.42;0.80;;;;;;;19.78;47.01;101367.06;6359518;22;20496;-86
2021/04/09 08:20:37;;;;;;;1.50;0.82;;;;;;;20.02;46.37;101375.53;6372747;22;20005;-91
2021/04/09 08:23:15;;;;;;;1.38;0.63;;;;;;;19.79;46.85;101388.81;6372013;22;20005;-87
2021/04/09 08:25:42;;;;;;;2.05;0.80;;;;;;;19.31;48.15;101391.81;6372586;22;20002;-89
2021/04/09 08:28:10;;;;;;;2.25;0.80;;;;;;;19.07;48.81;101385.88;6346427;22;20375;-87
2021/04/09 08:30:37;;;;;;;2.42;1.05;;;;;;;19.06;48.93;101393.75;6347897;22;20002;-87
2021/04/09 08:33:08;;;;;;;1.77;0.90;;;;;;;19.05;49.01;101389.38;6370747;22;19997;-92
2021/04/09 08:35:34;;;;;;;1.65;0.98;;;;;;;19.07;48.87;101387.63;6327485;22;20446;-86
2021/04/09 08:38:02;;;;;;;2.20;0.85;;;;;;;19.08;48.94;101386.78;6345087;22;20009;-89
2021/04/09 08:40:28;;;;;;;2.22;1.10;;;;;;;19.06;49.05;101396.34;6347206;22;20011;-89
2021/04/09 08:42:55;;;;;;;1.50;0.80;;;;;;;19.01;49.06;101403.31;6352637;22;20025;-82
2021/04/09 08:45:20;;;;;;;3.72;0.98;;;;;;;19.03;49.36;101407.69;6354435;22;20014;-81
2021/04/09 08:47:53;;;;;;;4.07;1.10;;;;;;;18.97;49.62;101399.88;6358186;22;19999;-82
2021/04/09 08:53:42;;;;;;;2.00;0.98;;;;;;;18.88;49.93;101399.97;6361759;22;20537;-82
2021/04/09 08:56:13;;;;;;;2.42;0.80;;;;;;;19.00;49.44;101404.22;6360181;22;20003;-80
2021/04/09 08:58:47;;;;;;;3.33;0.80;;;;;;;18.96;49.39;101398.13;6359744;22;20011;-80
2021/04/09 09:01:14;;;;;;;2.15;1.05;;;;;;;19.03;49.56;101414.63;6353446;22;20018;-81
2021/04/09 09:03:40;;;;;;;3.55;1.00;;;;;;;19.04;49.59;101417.22;6352179;22;20002;-81
2021/04/09 09:06:12;;;;;;;2.03;0.90;;;;;;;18.98;49.37;101421.63;6331154;22;20014;-81
2021/04/09 09:08:43;;;;;;;3.80;0.80;;;;;;;18.88;49.98;101423.44;6358812;22;20006;-81
2021/04/09 09:11:13;;;;;;;1.23;0.68;;;;;;;18.82;50.06;101421.72;6360502;22;20062;-80
2021/04/09 09:13:46;;;;;;;1.80;0.90;;;;;;;18.84;50.01;101421.72;6363075;22;19995;-81
2021/04/09 09:16:15;;;;;;;2.13;0.82;;;;;;;18.79;50.05;101419.13;6361406;22;20081;-80
2021/04/09 09:18:53;;;;;;;2.08;0.70;;;;;;;18.78;50.25;101422.59;6358955;22;19999;-82
2021/04/09 09:21:25;;;;;;;1.58;1.00;;;;;;;18.80;50.21;101422.59;6332680;22;20067;-80
2021/04/09 09:24:19;;;;;;;2.00;1.00;;;;;;;18.78;50.42;101416.53;6360015;22;19991;-86
2021/04/09 09:27:08;;;;;;;2.17;1.00;;;;;;;18.70;50.28;101422.63;6332535;22;20019;-80
2021/04/09 09:29:46;;;;;;;2.15;0.82;;;;;;;18.70;50.46;101427.84;6359102;22;20015;-79
2021/04/09 09:32:12;;;;;;;2.35;0.90;;;;;;;18.76;50.13;101415.63;6359116;22;20025;-81
2021/04/09 09:34:57;;;;;;;1.67;0.70;;;;;;;18.73;50.35;101423.44;6358921;22;20006;-83
2021/04/09 09:37:25;;;;;;;1.05;0.68;;;;;;;18.75;50.29;101432.13;6358805;22;20064;-80
2021/04/09 09:40:07;;;;;;;1.52;0.65;;;;;;;18.70;50.44;101425.22;6358538;22;20056;-81
2021/04/09 09:42:48;;;;;;;1.52;0.75;;;;;;;18.69;50.56;101430.44;6359619;22;20058;-83
2021/04/09 09:45:35;;;;;;;2.97;0.85;;;;;;;18.67;50.45;101432.19;6361579;22;19990;-81
2021/04/09 09:48:19;;;;;;;1.55;0.80;;;;;;;18.63;50.83;101425.25;6359679;22;20002;-80
2021/04/09 09:50:53;;;;;;;1.25;0.70;;;;;;;18.60;50.85;101440.91;6351968;22;20015;-82
2021/04/09 09:56:28;;;;;;;1.83;0.77;;;;;;;18.56;51.01;101444.41;6360509;22;20018;-79
2021/04/09 09:59:31;;;;;;;2.08;0.82;;;;;;;18.65;50.70;101453.03;6357995;22;20011;-81
2021/04/09 10:01:58;;;;;;;1.45;0.70;;;;;;;18.62;50.67;101442.63;6359298;22;20055;-81
2021/04/09 10:04:30;;;;;;;1.73;0.80;;;;;;;18.67;50.48;101448.69;6359078;22;20680;-80
2021/04/09 10:09:51;;;;;;;1.65;0.90;;;;;;;18.76;50.46;101445.16;6366980;22;20026;-81
2021/04/09 10:12:23;;;;;;;2.17;0.93;;;;;;;18.88;50.12;101434.72;6357811;22;20437;-81
2021/04/09 10:14:56;;;;;;;1.30;0.80;;;;;;;18.96;49.89;101436.41;6353747;22;20023;-85
2021/04/09 10:17:24;;;;;;;1.02;0.68;;;;;;;18.84;50.28;101429.53;6330217;22;20006;-80
2021/04/09 10:20:00;;;;;;;1.90;0.70;;;;;;;18.91;49.92;101437.28;6350621;22;20034;-82
2021/04/09 10:22:28;;;;;;;1.80;0.80;;;;;;;19.00;49.70;101435.53;6355439;22;20007;-81
2021/04/09 10:24:55;;;;;;;1.55;0.60;;;;;;;18.90;49.79;101434.69;6371347;22;20002;-80
2021/04/09 10:27:22;;;;;;;1.92;0.80;;;;;;;18.87;50.24;101437.31;6387204;22;20006;-80
2021/04/09 10:29:53;;;;;;;1.38;0.80;;;;;;;18.93;49.97;101437.28;6385396;22;20450;-80
2021/04/09 10:32:25;;;;;;;1.50;0.60;;;;;;;19.00;49.82;101431.16;6381730;22;20006;-81
2021/04/09 10:34:52;;;;;;;1.10;0.60;;;;;;;19.05;49.73;101432.03;6378837;22;19999;-83
2021/04/09 10:37:19;;;;;;;1.90;0.90;;;;;;;19.03;49.64;101425.94;6352836;22;20010;-83
2021/04/09 10:39:45;;;;;;;2.20;0.82;;;;;;;18.97;49.91;101430.34;6380854;22;20035;-82
2021/04/09 10:42:10;;;;;;;2.00;0.85;;;;;;;19.02;49.82;101426.81;6355459;22;20329;-82
2021/04/09 10:44:36;;;;;;;1.58;0.82;;;;;;;19.09;49.78;101435.44;6378933;22;19998;-85
2021/04/09 10:47:04;;;;;;;1.63;0.82;;;;;;;19.07;49.65;101424.16;6377690;22;20010;-86
2021/04/09 10:49:35;;;;;;;1.60;0.70;;;;;;;19.07;49.78;101421.56;6380760;22;20027;-83
2021/04/09 10:52:12;;;;;;;1.48;0.60;;;;;;;19.07;49.88;101427.63;6381359;22;20004;-80
2021/04/09 10:54:39;;;;;;;1.58;0.70;;;;;;;19.01;49.82;101424.19;6383743;22;20037;-85
2021/04/09 10:57:14;;;;;;;1.58;0.80;;;;;;;19.02;49.98;101413.75;6382359;22;20002;-85
2021/04/09 10:59:58;;;;;;;2.92;0.70;;;;;;;19.00;50.12;101425.09;6382981;22;20002;-83
2021/04/09 11:02:25;;;;;;;1.17;0.65;;;;;;;19.00;50.13;101420.72;6383880;22;20007;-87
2021/04/09 11:04:56;;;;;;;2.47;0.90;;;;;;;19.09;49.91;101417.19;6383482;22;20033;-84
2021/04/09 11:07:42;;;;;;;1.90;0.63;;;;;;;19.15;49.58;101418.91;6383051;22;19998;-80
2021/04/09 11:10:35;;;;;;;1.65;0.80;;;;;;;19.18;49.61;101418.88;6383504;22;20006;-84
2021/04/09 11:13:03;;;;;;;1.10;0.70;;;;;;;19.23;49.41;101422.34;6378326;22;20010;-87
2021/04/09 11:15:39;;;;;;;1.70;0.80;;;;;;;19.23;49.49;101417.97;6374290;22;20010;-83
2021/04/09 11:18:05;;;;;;;2.25;0.77;;;;;;;19.23;49.35;101419.72;6377984;22;20010;-81
2021/04/09 11:20:42;;;;;;;1.17;0.65;;;;;;;19.27;49.64;101424.03;6376323;22;20509;-82
2021/04/09 11:23:17;;;;;;;1.52;0.70;;;;;;;19.27;49.55;101416.19;6375594;22;20059;-83
2021/04/09 11:25:45;;;;;;;2.35;0.80;;;;;;;19.30;49.39;101413.56;6347214;22;20030;-86
2021/04/09 11:28:30;;;;;;;0.98;0.60;;;;;;;19.27;49.59;101414.47;6374502;22;20006;-83
2021/04/09 11:31:05;;;;;;;1.92;0.73;;;;;;;19.23;49.62;101412.75;6378449;22;20011;-87
2021/04/09 11:34:07;;;;;;;2.78;0.77;;;;;;;19.25;49.51;101411.00;6351790;22;20067;-84
2021/04/09 11:36:43;;;;;;;1.10;0.63;;;;;;;19.22;49.57;101413.63;6383827;22;20009;-87
2021/04/09 11:39:16;;;;;;;1.52;0.73;;;;;;;19.20;49.85;101412.75;6385777;22;20030;-83
2021/04/09 11:41:45;;;;;;;1.10;0.70;;;;;;;19.18;49.81;101408.44;6378756;22;20081;-86
2021/04/09 11:44:36;;;;;;;2.05;0.80;;;;;;;19.21;49.77;101418.88;6389195;22;19998;-87
2021/04/09 11:47:39;;;;;;;1.30;0.70;;;;;;;19.17;49.94;101417.16;6388726;22;20007;-84
2021/04/09 11:50:18;;;;;;;1.67;0.70;;;;;;;19.16;49.94;101411.03;6391008;22;19999;-84
2021/04/09 11:53:04;;;;;;;2.10;0.65;;;;;;;19.22;49.75;101420.59;6390364;22;20017;-88
2021/04/09 11:55:45;;;;;;;2.13;0.80;;;;;;;19.18;49.61;101418.88;6386328;22;20143;-83
2021/04/09 11:58:36;;;;;;;1.02;0.68;;;;;;;19.17;49.57;101418.00;6388389;22;20367;-89
2021/04/09 12:01:31;;;;;;;1.23;0.70;;;;;;;19.19;49.62;101418.88;6378078;22;20077;-84
2021/04/09 12:03:57;;;;;;;0.80;0.60;;;;;;;19.18;49.78;101417.13;6384946;22;20003;-82
2021/04/09 12:06:23;;;;;;;2.17;0.90;;;;;;;19.16;49.49;101404.97;6388350;22;20006;-88
2021/04/09 12:08:50;;;;;;;1.33;0.70;;;;;;;19.16;49.65;101415.41;6357376;22;20021;-83
2021/04/09 12:11:16;;;;;;;1.23;0.70;;;;;;;19.17;49.73;101419.75;6381578;22;20010;-82
2021/04/09 12:13:46;;;;;;;1.02;0.50;;;;;;;19.19;49.65;101415.41;6381938;22;20014;-83
2021/04/09 12:16:12;;;;;;;1.75;0.70;;;;;;;19.22;49.28;101416.22;6378423;22;19995;-81
2021/04/09 12:18:44;;;;;;;1.15;0.60;;;;;;;19.20;49.75;101412.75;6381982;22;20012;-80
2021/04/09 12:21:09;;;;;;;1.35;0.60;;;;;;;19.17;49.67;101414.53;6360375;22;20002;-83
2021/04/09 12:23:35;;;;;;;0.88;0.60;;;;;;;19.13;49.69;101418.06;6396034;22;20002;-84
2021/04/09 12:26:02;;;;;;;1.55;0.60;;;;;;;19.17;49.55;101423.22;6394858;22;20093;-81